createdAt,value
2022-10-21T00:00:26.799Z,30.08
2022-10-21T00:05:28.563Z,29.33
2022-10-21T00:10:30.320Z,30.08
2022-10-21T00:15:32.014Z,28.67
2022-10-21T00:20:35.983Z,30.92
2022-10-21T00:25:40.878Z,34.13
2022-10-21T00:30:46.433Z,28.58
2022-10-21T00:35:57.360Z,36.78
2022-10-21T00:40:59.410Z,30.23
2022-10-21T00:46:05.720Z,30.15
2022-10-21T00:51:11.127Z,31.05
2022-10-21T00:56:18.279Z,30.08
2022-10-21T01:01:21.589Z,30.55
2022-10-21T01:06:25.773Z,28.25
2022-10-21T01:11:30.218Z,32.78
2022-10-21T01:17:02.361Z,36.67
2022-10-21T01:22:12.733Z,30.13
2022-10-21T01:27:40.354Z,31.60
2022-10-21T01:33:06.614Z,31.42
2022-10-21T01:38:20.150Z,31.33
2022-10-21T01:43:33.289Z,31.13
2022-10-21T01:48:44.952Z,30.33
2022-10-21T01:53:55.541Z,32.03
2022-10-21T01:58:59.008Z,31.95
2022-10-21T02:04:04.106Z,32.00
2022-10-21T02:09:05.841Z,34.53
2022-10-21T02:14:18.451Z,32.65
2022-10-21T02:19:20.626Z,32.22
2022-10-21T02:24:26.696Z,31.75
2022-10-21T02:29:35.464Z,30.92
2022-10-21T02:35:01.883Z,28.98
2022-10-21T02:40:16.390Z,27.17
2022-10-21T02:45:18.673Z,30.10
2022-10-21T02:50:20.711Z,27.73
2022-10-21T02:55:22.374Z,27.05
2022-10-21T03:00:23.980Z,28.92
2022-10-21T03:05:25.580Z,29.23
2022-10-21T03:10:27.232Z,26.77
2022-10-21T03:15:28.798Z,27.58
2022-10-21T03:20:30.495Z,31.65
2022-10-21T03:25:35.509Z,25.90
2022-10-21T03:30:37.545Z,30.33
2022-10-21T03:35:39.078Z,27.42
2022-10-21T03:40:40.623Z,28.98
2022-10-21T03:45:42.167Z,26.75
2022-10-21T03:50:43.805Z,21.88
2022-10-21T03:55:45.416Z,24.05
2022-10-21T04:00:52.477Z,22.52
2022-10-21T04:05:54.091Z,20.48
2022-10-21T04:10:57.763Z,20.63
2022-10-21T04:16:01.130Z,20.55
2022-10-21T04:21:02.735Z,18.88
2022-10-21T04:26:05.587Z,20.33
2022-10-21T04:31:07.314Z,16.40
2022-10-21T04:36:08.874Z,18.35
2022-10-21T04:41:10.798Z,15.40
2022-10-21T04:46:17.109Z,19.27
2022-10-21T04:51:18.926Z,14.20
2022-10-21T04:56:20.555Z,16.48
2022-10-21T05:01:22.281Z,15.23
2022-10-21T05:06:23.953Z,24.67
2022-10-21T05:11:25.688Z,14.60
2022-10-21T05:16:27.305Z,15.00
2022-10-21T05:21:28.897Z,14.38
2022-10-21T05:26:31.112Z,15.45
2022-10-21T05:31:32.671Z,14.15
2022-10-21T05:36:34.261Z,13.00
2022-10-21T05:41:35.880Z,13.45
2022-10-21T05:46:37.443Z,14.13
2022-10-21T05:51:39.013Z,15.95
2022-10-21T05:56:42.580Z,19.90
2022-10-21T06:01:44.203Z,13.90
2022-10-21T06:06:45.827Z,13.07
2022-10-21T06:11:47.417Z,13.60
2022-10-21T06:16:48.998Z,13.32
2022-10-21T06:21:50.615Z,14.52
2022-10-21T06:26:52.486Z,9.38
2022-10-21T06:31:54.106Z,10.60
2022-10-21T06:36:55.636Z,12.40
2022-10-21T06:41:57.208Z,12.45
2022-10-21T06:46:58.765Z,15.10
2022-10-21T06:52:00.398Z,20.77
2022-10-21T06:57:02.034Z,16.05
2022-10-21T07:02:03.739Z,17.73
2022-10-21T07:07:05.575Z,17.00
2022-10-21T07:12:07.207Z,14.60
2022-10-21T07:17:09.248Z,13.63
2022-10-21T07:22:10.802Z,18.15
2022-10-21T07:27:12.364Z,17.95
2022-10-21T07:32:14.039Z,14.27
2022-10-21T07:37:15.632Z,14.32
2022-10-21T07:42:17.193Z,13.32
2022-10-21T07:47:19.581Z,14.25
2022-10-21T07:52:21.181Z,11.52
2022-10-21T07:57:22.939Z,11.15
2022-10-21T08:02:24.838Z,13.38
2022-10-21T08:07:26.653Z,11.50
2022-10-21T08:12:28.226Z,13.77
2022-10-21T08:17:29.788Z,12.10
2022-10-21T08:22:31.334Z,14.45
2022-10-21T08:27:34.361Z,9.90
2022-10-21T08:32:36.164Z,9.75
2022-10-21T08:37:38.137Z,11.07
2022-10-21T08:42:42.629Z,10.80
2022-10-21T08:47:49.740Z,9.95
2022-10-21T08:52:58.776Z,19.55
2022-10-21T08:58:01.345Z,14.98
2022-10-21T09:03:06.220Z,13.45
2022-10-21T09:08:36.956Z,10.43
2022-10-21T09:14:05.150Z,11.68
2022-10-21T09:19:32.158Z,16.30
2022-10-21T09:24:45.776Z,14.45
2022-10-21T09:29:56.860Z,11.95
2022-10-21T09:35:06.739Z,10.35
2022-10-21T09:40:24.004Z,20.40
2022-10-21T09:45:34.194Z,10.57
2022-10-21T09:50:36.026Z,8.85
2022-10-21T09:55:39.256Z,10.02
2022-10-21T10:00:50.188Z,6.78
2022-10-21T10:05:52.083Z,9.23
2022-10-21T10:11:10.953Z,8.10
2022-10-21T10:16:12.622Z,7.57
2022-10-21T10:21:22.185Z,11.15
2022-10-21T10:26:32.585Z,10.15
2022-10-21T10:31:35.840Z,7.80
2022-10-21T10:36:39.648Z,7.70
2022-10-21T10:41:45.463Z,5.72
2022-10-21T10:46:57.617Z,6.93
2022-10-21T10:52:11.495Z,5.97
2022-10-21T10:57:18.377Z,5.65
2022-10-21T11:02:48.224Z,7.15
2022-10-21T11:08:00.756Z,8.43
2022-10-21T11:13:05.531Z,8.82
2022-10-21T11:18:26.092Z,9.05
2022-10-21T11:23:40.680Z,8.95
2022-10-21T11:29:23.824Z,6.63
2022-10-21T11:34:25.317Z,9.25
2022-10-21T11:39:57.550Z,10.07
2022-10-21T11:45:07.971Z,10.32
2022-10-21T11:50:27.408Z,9.80
2022-10-21T11:56:07.026Z,9.63
2022-10-21T12:01:24.059Z,8.07
2022-10-21T12:07:02.768Z,12.00
2022-10-21T12:12:17.707Z,9.20
2022-10-21T12:17:21.305Z,10.18
2022-10-21T12:22:26.202Z,15.90
2022-10-21T12:28:04.457Z,11.50
2022-10-21T12:33:12.001Z,7.83
2022-10-21T12:38:49.280Z,11.18
2022-10-21T12:44:03.085Z,9.75
2022-10-21T12:49:32.872Z,7.90
2022-10-21T12:54:51.374Z,10.80
2022-10-21T13:00:28.311Z,13.73
2022-10-21T13:05:39.407Z,7.43
2022-10-21T13:10:41.175Z,6.32
2022-10-21T13:15:46.575Z,10.70
2022-10-21T13:20:48.634Z,9.32
2022-10-21T13:26:13.264Z,10.57
2022-10-21T13:31:21.355Z,12.13
2022-10-21T13:41:43.019Z,8.82
2022-10-21T13:46:44.612Z,9.57
2022-10-21T13:51:46.970Z,8.25
2022-10-21T13:56:48.635Z,12.13
2022-10-21T14:01:56.046Z,10.73
2022-10-21T14:07:08.150Z,13.43
2022-10-21T14:12:22.400Z,13.25
2022-10-21T14:17:27.720Z,9.93
2022-10-21T14:22:31.519Z,9.77
2022-10-21T14:27:35.646Z,12.05
2022-10-21T14:32:38.929Z,9.65
2022-10-21T14:37:44.873Z,13.73
2022-10-21T14:42:51.002Z,12.13
2022-10-21T14:48:06.830Z,14.20
2022-10-21T14:53:19.909Z,13.82
2022-10-21T14:58:26.034Z,11.68
2022-10-21T15:03:42.534Z,12.32
2022-10-21T15:08:56.243Z,12.65
2022-10-21T15:13:58.144Z,8.48
2022-10-21T15:19:07.023Z,14.48
2022-10-21T15:24:18.384Z,14.40
2022-10-21T15:29:22.826Z,14.85
2022-10-21T15:34:24.831Z,12.80
2022-10-21T15:39:26.437Z,16.17
2022-10-21T15:44:34.087Z,19.13
2022-10-21T15:49:38.555Z,23.65
2022-10-21T15:54:40.652Z,18.42
2022-10-21T15:59:42.564Z,17.00
2022-10-21T16:04:45.006Z,24.77
2022-10-21T16:09:47.072Z,27.05
2022-10-21T16:14:48.720Z,21.98
2022-10-21T16:19:50.291Z,18.15
2022-10-21T16:24:51.985Z,19.55
2022-10-21T16:29:53.698Z,18.30
2022-10-21T16:34:55.950Z,20.17
2022-10-21T16:39:58.304Z,20.10
2022-10-21T16:44:59.844Z,16.60
2022-10-21T16:50:03.253Z,14.40
2022-10-21T16:55:06.077Z,21.58
2022-10-21T17:00:08.370Z,17.55
2022-10-21T17:05:13.375Z,17.58
2022-10-21T17:10:15.087Z,18.75
2022-10-21T17:15:16.689Z,15.98
2022-10-21T17:20:18.403Z,18.05
2022-10-21T17:25:20.037Z,19.67
2022-10-21T17:30:21.616Z,17.77
2022-10-21T17:35:23.422Z,24.88
2022-10-21T17:40:26.924Z,20.15
2022-10-21T17:45:28.506Z,19.30
2022-10-21T17:50:31.944Z,20.90
2022-10-21T17:55:33.649Z,19.27
2022-10-21T18:00:35.800Z,17.77
2022-10-21T18:05:40.424Z,17.85
2022-10-21T18:10:42.708Z,19.35
2022-10-21T18:15:44.287Z,20.90
2022-10-21T18:20:46.216Z,21.30
2022-10-21T18:25:48.307Z,18.38
2022-10-21T18:30:49.895Z,18.55
2022-10-21T18:35:51.521Z,18.30
2022-10-21T18:41:01.923Z,22.50
2022-10-21T18:46:04.778Z,22.25
2022-10-21T18:51:08.182Z,18.48
2022-10-21T18:56:15.779Z,19.75
2022-10-21T19:01:19.306Z,20.40
2022-10-21T19:06:29.747Z,22.52
2022-10-21T19:11:31.496Z,22.45
2022-10-21T19:16:33.102Z,22.48
2022-10-21T19:21:34.959Z,24.35
2022-10-21T19:26:39.124Z,24.52
2022-10-21T19:31:41.579Z,23.85
2022-10-21T19:36:43.204Z,23.58
2022-10-21T19:41:45.901Z,24.70
2022-10-21T19:46:47.460Z,26.90
2022-10-21T19:51:49.156Z,29.15
2022-10-21T19:56:52.062Z,29.60
2022-10-21T20:01:53.617Z,29.02
2022-10-21T20:06:56.477Z,28.63
2022-10-21T20:11:58.094Z,31.55
2022-10-21T20:16:59.653Z,21.40
2022-10-21T20:22:01.213Z,22.20
2022-10-21T20:27:02.759Z,26.23
2022-10-21T20:32:04.357Z,26.75
2022-10-21T20:37:06.054Z,27.70
2022-10-21T20:42:07.680Z,26.08
2022-10-21T20:47:09.277Z,23.92
2022-10-21T20:52:10.831Z,23.40
2022-10-21T20:57:12.394Z,23.35
2022-10-21T21:02:14.096Z,21.15
2022-10-21T21:07:15.753Z,21.98
2022-10-21T21:12:17.301Z,22.92
2022-10-21T21:17:18.885Z,17.20
2022-10-21T21:22:21.161Z,19.80
2022-10-21T21:27:22.767Z,19.10
2022-10-21T21:32:24.411Z,20.67
2022-10-21T21:37:26.468Z,20.95
2022-10-21T21:42:28.021Z,20.45
2022-10-21T21:47:29.601Z,20.33
2022-10-21T21:52:32.076Z,19.50
2022-10-21T21:57:33.712Z,23.38
2022-10-21T22:02:35.269Z,18.85
2022-10-21T22:07:36.852Z,20.13
2022-10-21T22:12:38.879Z,16.75
2022-10-21T22:17:40.943Z,21.20
2022-10-21T22:22:42.769Z,22.88
2022-10-21T22:27:44.733Z,17.60
2022-10-21T22:32:46.332Z,21.60
2022-10-21T22:37:47.893Z,18.27
2022-10-21T22:42:49.447Z,20.60
2022-10-21T22:47:51.012Z,18.60
2022-10-21T22:52:52.637Z,20.08
2022-10-21T22:57:54.198Z,21.25
2022-10-21T23:02:56.171Z,17.27
2022-10-21T23:07:57.713Z,19.35
2022-10-21T23:12:59.409Z,17.45
2022-10-21T23:18:01.168Z,18.00
2022-10-21T23:23:02.785Z,14.95
2022-10-21T23:28:04.705Z,20.35
2022-10-21T23:33:06.524Z,17.20
2022-10-21T23:38:08.137Z,15.95
2022-10-21T23:43:10.232Z,20.90
2022-10-21T23:48:11.818Z,16.08
2022-10-21T23:53:13.384Z,19.98
2022-10-21T23:58:14.942Z,22.33
